sensor_id;sensor_type;location;lat;lon;timestamp;pressure;altitude;pressure_sealevel;temperature;humidity
69624;BME280;56843;52.020;5.670;2022-08-19T00:00:59;101145.94;;;14.99;89.61
69624;BME280;56843;52.020;5.670;2022-08-19T00:02:30;101159.75;;;14.97;89.32
69624;BME280;56843;52.020;5.670;2022-08-19T00:04:03;101153.16;;;14.95;89.45
69624;BME280;56843;52.020;5.670;2022-08-19T00:05:34;101155.75;;;14.91;89.57
69624;BME280;56843;52.020;5.670;2022-08-19T00:07:06;101151.47;;;14.90;89.43
69624;BME280;56843;52.020;5.670;2022-08-19T00:08:36;101149.50;;;14.87;89.69
69624;BME280;56843;52.020;5.670;2022-08-19T00:10:07;101150.59;;;14.86;89.79
69624;BME280;56843;52.020;5.670;2022-08-19T00:11:38;101147.47;;;14.84;89.73
69624;BME280;56843;52.020;5.670;2022-08-19T00:13:09;101156.66;;;14.83;89.97
69624;BME280;56843;52.020;5.670;2022-08-19T00:14:39;101155.09;;;14.82;89.99
69624;BME280;56843;52.020;5.670;2022-08-19T00:16:11;101160.03;;;14.80;89.84
69624;BME280;56843;52.020;5.670;2022-08-19T00:17:43;101154.66;;;14.80;90.17
69624;BME280;56843;52.020;5.670;2022-08-19T00:19:14;101161.16;;;14.79;90.04
69624;BME280;56843;52.020;5.670;2022-08-19T00:20:45;101160.72;;;14.77;89.98
69624;BME280;56843;52.020;5.670;2022-08-19T00:22:15;101163.41;;;14.77;90.20
69624;BME280;56843;52.020;5.670;2022-08-19T00:23:47;101165.31;;;14.77;90.17
69624;BME280;56843;52.020;5.670;2022-08-19T00:25:18;101162.63;;;14.77;89.96
69624;BME280;56843;52.020;5.670;2022-08-19T00:26:48;101162.97;;;14.75;90.16
69624;BME280;56843;52.020;5.670;2022-08-19T00:28:20;101159.50;;;14.74;90.25
69624;BME280;56843;52.020;5.670;2022-08-19T00:29:51;101152.56;;;14.73;90.24
69624;BME280;56843;52.020;5.670;2022-08-19T00:31:21;101148.66;;;14.71;90.23
69624;BME280;56843;52.020;5.670;2022-08-19T00:32:52;101165.88;;;14.70;90.05
69624;BME280;56843;52.020;5.670;2022-08-19T00:34:24;101157.38;;;14.68;90.67
69624;BME280;56843;52.020;5.670;2022-08-19T00:36:03;101161.97;;;14.67;90.25
69624;BME280;56843;52.020;5.670;2022-08-19T00:37:37;101151.56;;;14.66;90.39
69624;BME280;56843;52.020;5.670;2022-08-19T00:39:09;101157.63;;;14.63;90.43
69624;BME280;56843;52.020;5.670;2022-08-19T00:40:43;101154.59;;;14.64;90.55
69624;BME280;56843;52.020;5.670;2022-08-19T00:42:17;101163.00;;;14.63;90.43
69624;BME280;56843;52.020;5.670;2022-08-19T00:44:09;101147.66;;;14.63;90.56
69624;BME280;56843;52.020;5.670;2022-08-19T00:45:40;101165.25;;;14.61;90.43
69624;BME280;56843;52.020;5.670;2022-08-19T00:47:14;101157.53;;;14.59;90.49
69624;BME280;56843;52.020;5.670;2022-08-19T00:48:44;101164.81;;;14.59;90.46
69624;BME280;56843;52.020;5.670;2022-08-19T00:50:18;101162.13;;;14.59;90.41
69624;BME280;56843;52.020;5.670;2022-08-19T00:51:53;101162.91;;;14.59;90.40
69624;BME280;56843;52.020;5.670;2022-08-19T00:53:27;101160.56;;;14.58;90.42
69624;BME280;56843;52.020;5.670;2022-08-19T00:54:59;101165.16;;;14.57;90.75
69624;BME280;56843;52.020;5.670;2022-08-19T00:56:30;101164.72;;;14.55;90.66
69624;BME280;56843;52.020;5.670;2022-08-19T00:58:05;101162.03;;;14.55;90.75
69624;BME280;56843;52.020;5.670;2022-08-19T00:59:38;101165.50;;;14.56;90.79
69624;BME280;56843;52.020;5.670;2022-08-19T01:01:10;101167.41;;;14.55;90.73
69624;BME280;56843;52.020;5.670;2022-08-19T01:02:41;101160.13;;;14.56;90.77
69624;BME280;56843;52.020;5.670;2022-08-19T01:04:12;101166.59;;;14.55;90.70
69624;BME280;56843;52.020;5.670;2022-08-19T01:05:44;101168.19;;;14.56;90.84
69624;BME280;56843;52.020;5.670;2022-08-19T01:07:15;101159.69;;;14.54;90.94
69624;BME280;56843;52.020;5.670;2022-08-19T01:08:46;101160.44;;;14.54;90.97
69624;BME280;56843;52.020;5.670;2022-08-19T01:10:20;101160.44;;;14.54;91.13
69624;BME280;56843;52.020;5.670;2022-08-19T01:11:51;101165.06;;;14.54;91.00
69624;BME280;56843;52.020;5.670;2022-08-19T01:13:25;101159.69;;;14.54;91.04
69624;BME280;56843;52.020;5.670;2022-08-19T01:14:57;101165.06;;;14.54;91.01
69624;BME280;56843;52.020;5.670;2022-08-19T01:16:28;101163.84;;;14.51;90.99
69624;BME280;56843;52.020;5.670;2022-08-19T01:18:04;101167.63;;;14.50;91.18
69624;BME280;56843;52.020;5.670;2022-08-19T01:19:39;101166.06;;;14.49;91.25
69624;BME280;56843;52.020;5.670;2022-08-19T01:21:18;101164.50;;;14.48;91.30
69624;BME280;56843;52.020;5.670;2022-08-19T01:22:57;101159.47;;;14.47;91.27
69624;BME280;56843;52.020;5.670;2022-08-19T01:24:28;101157.09;;;14.45;91.33
69624;BME280;56843;52.020;5.670;2022-08-19T01:25:58;101162.47;;;14.45;91.41
69624;BME280;56843;52.020;5.670;2022-08-19T01:27:38;101165.97;;;14.46;91.14
69624;BME280;56843;52.020;5.670;2022-08-19T01:29:09;101169.00;;;14.44;91.21
69624;BME280;56843;52.020;5.670;2022-08-19T01:30:40;101163.97;;;14.43;91.59
69624;BME280;56843;52.020;5.670;2022-08-19T01:32:13;101168.19;;;14.44;91.57
69624;BME280;56843;52.020;5.670;2022-08-19T01:33:45;101170.78;;;14.40;91.46
69624;BME280;56843;52.020;5.670;2022-08-19T01:35:17;101178.84;;;14.40;91.19
69624;BME280;56843;52.020;5.670;2022-08-19T01:36:48;101164.97;;;14.38;91.39
69624;BME280;56843;52.020;5.670;2022-08-19T01:38:26;101162.28;;;14.38;91.26
69624;BME280;56843;52.020;5.670;2022-08-19T01:39:57;101169.13;;;14.36;91.34
69624;BME280;56843;52.020;5.670;2022-08-19T01:41:27;101171.03;;;14.35;91.60
69624;BME280;56843;52.020;5.670;2022-08-19T01:42:59;101169.44;;;14.34;91.42
69624;BME280;56843;52.020;5.670;2022-08-19T01:44:29;101162.97;;;14.35;91.72
69624;BME280;56843;52.020;5.670;2022-08-19T01:46:00;101157.59;;;14.35;91.67
69624;BME280;56843;52.020;5.670;2022-08-19T01:47:30;101159.47;;;14.35;91.42
69624;BME280;56843;52.020;5.670;2022-08-19T01:49:02;101157.16;;;14.33;91.51
69624;BME280;56843;52.020;5.670;2022-08-19T01:50:34;101159.81;;;14.33;91.62
69624;BME280;56843;52.020;5.670;2022-08-19T01:52:05;101161.28;;;14.31;91.47
69624;BME280;56843;52.020;5.670;2022-08-19T01:53:37;101162.06;;;14.31;91.80
69624;BME280;56843;52.020;5.670;2022-08-19T01:55:09;101175.81;;;14.30;91.70
69624;BME280;56843;52.020;5.670;2022-08-19T01:56:41;101170.81;;;14.28;91.56
69624;BME280;56843;52.020;5.670;2022-08-19T01:58:18;101172.69;;;14.28;91.76
69624;BME280;56843;52.020;5.670;2022-08-19T01:59:50;101170.34;;;14.26;91.80
69624;BME280;56843;52.020;5.670;2022-08-19T02:01:21;101166.13;;;14.25;91.86
69624;BME280;56843;52.020;5.670;2022-08-19T02:02:52;101166.44;;;14.24;91.67
69624;BME280;56843;52.020;5.670;2022-08-19T02:04:22;101162.97;;;14.23;91.80
69624;BME280;56843;52.020;5.670;2022-08-19T02:05:58;101170.25;;;14.23;91.81
69624;BME280;56843;52.020;5.670;2022-08-19T02:07:29;101162.88;;;14.20;91.71
69624;BME280;56843;52.020;5.670;2022-08-19T02:09:00;101155.91;;;14.19;91.93
69624;BME280;56843;52.020;5.670;2022-08-19T02:10:30;101172.72;;;14.16;91.67
69624;BME280;56843;52.020;5.670;2022-08-19T02:12:03;101161.97;;;14.16;92.05
69624;BME280;56843;52.020;5.670;2022-08-19T02:13:34;101165.34;;;14.13;92.09
69624;BME280;56843;52.020;5.670;2022-08-19T02:15:05;101172.59;;;14.12;91.88
69624;BME280;56843;52.020;5.670;2022-08-19T02:16:36;101171.03;;;14.11;92.02
69624;BME280;56843;52.020;5.670;2022-08-19T02:18:07;101175.63;;;14.11;92.16
69624;BME280;56843;52.020;5.670;2022-08-19T02:19:38;101175.19;;;14.09;92.13
69624;BME280;56843;52.020;5.670;2022-08-19T02:21:08;101175.19;;;14.09;92.15
69624;BME280;56843;52.020;5.670;2022-08-19T02:22:40;101178.97;;;14.08;92.17
69624;BME280;56843;52.020;5.670;2022-08-19T02:24:12;101172.41;;;14.05;91.88
69624;BME280;56843;52.020;5.670;2022-08-19T02:25:45;101173.16;;;14.06;92.23
69624;BME280;56843;52.020;5.670;2022-08-19T02:27:16;101171.16;;;14.03;92.31
69624;BME280;56843;52.020;5.670;2022-08-19T02:28:47;101182.22;;;14.01;92.12
69624;BME280;56843;52.020;5.670;2022-08-19T02:30:18;101176.41;;;13.99;92.22
69624;BME280;56843;52.020;5.670;2022-08-19T02:31:49;101173.28;;;13.97;92.32
69624;BME280;56843;52.020;5.670;2022-08-19T02:33:20;101183.25;;;13.96;92.20
69624;BME280;56843;52.020;5.670;2022-08-19T02:34:50;101185.47;;;13.94;92.24
69624;BME280;56843;52.020;5.670;2022-08-19T02:36:21;101189.28;;;13.93;92.27
69624;BME280;56843;52.020;5.670;2022-08-19T02:37:52;101190.38;;;13.92;92.51
69624;BME280;56843;52.020;5.670;2022-08-19T02:39:41;101197.53;;;13.88;92.32
69624;BME280;56843;52.020;5.670;2022-08-19T02:41:16;101189.47;;;13.88;92.51
69624;BME280;56843;52.020;5.670;2022-08-19T02:42:46;101187.56;;;13.89;92.24
69624;BME280;56843;52.020;5.670;2022-08-19T02:44:17;101181.06;;;13.90;92.37
69624;BME280;56843;52.020;5.670;2022-08-19T02:45:48;101181.84;;;13.90;92.32
69624;BME280;56843;52.020;5.670;2022-08-19T02:47:19;101176.50;;;13.90;92.16
69624;BME280;56843;52.020;5.670;2022-08-19T02:48:51;101172.25;;;13.89;92.32
69624;BME280;56843;52.020;5.670;2022-08-19T02:50:22;101179.06;;;13.87;92.17
69624;BME280;56843;52.020;5.670;2022-08-19T02:51:52;101180.63;;;13.88;92.26
69624;BME280;56843;52.020;5.670;2022-08-19T02:53:27;101181.75;;;13.87;92.44
69624;BME280;56843;52.020;5.670;2022-08-19T02:54:57;101182.88;;;13.86;92.26
69624;BME280;56843;52.020;5.670;2022-08-19T02:56:28;101180.53;;;13.84;92.23
69624;BME280;56843;52.020;5.670;2022-08-19T02:57:58;101186.25;;;13.83;92.63
69624;BME280;56843;52.020;5.670;2022-08-19T02:59:31;101188.13;;;13.82;92.35
69624;BME280;56843;52.020;5.670;2022-08-19T03:01:02;101191.16;;;13.81;92.25
69624;BME280;56843;52.020;5.670;2022-08-19T03:02:32;101181.88;;;13.78;92.24
69624;BME280;56843;52.020;5.670;2022-08-19T03:04:04;101185.66;;;13.77;92.61
69624;BME280;56843;52.020;5.670;2022-08-19T03:05:36;101189.03;;;13.74;92.02
69624;BME280;56843;52.020;5.670;2022-08-19T03:07:06;101183.97;;;13.73;92.58
69624;BME280;56843;52.020;5.670;2022-08-19T03:08:37;101190.47;;;13.72;92.44
69624;BME280;56843;52.020;5.670;2022-08-19T03:10:09;101187.00;;;13.71;92.48
69624;BME280;56843;52.020;5.670;2022-08-19T03:11:40;101191.13;;;13.69;92.75
69624;BME280;56843;52.020;5.670;2022-08-19T03:13:12;101188.44;;;13.69;92.48
69624;BME280;56843;52.020;5.670;2022-08-19T03:14:43;101183.41;;;13.67;92.58
69624;BME280;56843;52.020;5.670;2022-08-19T03:16:13;101188.34;;;13.65;92.75
69624;BME280;56843;52.020;5.670;2022-08-19T03:17:44;101187.56;;;13.65;92.55
69624;BME280;56843;52.020;5.670;2022-08-19T03:19:17;101188.34;;;13.65;92.50
69624;BME280;56843;52.020;5.670;2022-08-19T03:20:51;101185.22;;;13.63;92.50
69624;BME280;56843;52.020;5.670;2022-08-19T03:22:23;101184.72;;;13.61;92.43
69624;BME280;56843;52.020;5.670;2022-08-19T03:23:57;101186.97;;;13.59;92.70
69624;BME280;56843;52.020;5.670;2022-08-19T03:25:28;101181.16;;;13.57;92.73
69624;BME280;56843;52.020;5.670;2022-08-19T03:26:58;101178.81;;;13.56;92.80
69624;BME280;56843;52.020;5.670;2022-08-19T03:28:29;101183.38;;;13.55;92.88
69624;BME280;56843;52.020;5.670;2022-08-19T03:29:59;101187.97;;;13.55;92.88
69624;BME280;56843;52.020;5.670;2022-08-19T03:31:30;101188.31;;;13.53;92.62
69624;BME280;56843;52.020;5.670;2022-08-19T03:33:01;101183.28;;;13.52;92.76
69624;BME280;56843;52.020;5.670;2022-08-19T03:34:33;101198.25;;;13.53;92.66
69624;BME280;56843;52.020;5.670;2022-08-19T03:36:16;101186.41;;;13.54;92.79
69624;BME280;56843;52.020;5.670;2022-08-19T03:37:47;101186.75;;;13.52;92.95
69624;BME280;56843;52.020;5.670;2022-08-19T03:39:17;101193.22;;;13.51;92.50
69624;BME280;56843;52.020;5.670;2022-08-19T03:40:48;101200.16;;;13.52;92.75
69624;BME280;56843;52.020;5.670;2022-08-19T03:42:18;101195.91;;;13.51;92.78
69624;BME280;56843;52.020;5.670;2022-08-19T03:43:49;101193.22;;;13.51;92.95
69624;BME280;56843;52.020;5.670;2022-08-19T03:45:19;101192.44;;;13.51;92.42
69624;BME280;56843;52.020;5.670;2022-08-19T03:46:52;101191.66;;;13.50;92.78
69624;BME280;56843;52.020;5.670;2022-08-19T03:48:24;101197.34;;;13.49;93.10
69624;BME280;56843;52.020;5.670;2022-08-19T03:49:54;101196.25;;;13.50;92.99
69624;BME280;56843;52.020;5.670;2022-08-19T03:51:30;101186.63;;;13.49;92.86
69624;BME280;56843;52.020;5.670;2022-08-19T03:53:01;101189.63;;;13.47;92.79
69624;BME280;56843;52.020;5.670;2022-08-19T03:54:32;101191.53;;;13.47;93.04
69624;BME280;56843;52.020;5.670;2022-08-19T03:56:02;101190.75;;;13.46;92.60
69624;BME280;56843;52.020;5.670;2022-08-19T03:57:33;101186.50;;;13.45;92.74
69624;BME280;56843;52.020;5.670;2022-08-19T03:59:06;101193.78;;;13.45;93.00
69624;BME280;56843;52.020;5.670;2022-08-19T04:00:37;101188.75;;;13.43;92.85
69624;BME280;56843;52.020;5.670;2022-08-19T04:02:11;101194.41;;;13.42;93.13
69624;BME280;56843;52.020;5.670;2022-08-19T04:03:42;101179.00;;;13.39;92.52
69624;BME280;56843;52.020;5.670;2022-08-19T04:05:12;101176.63;;;13.37;92.86
69624;BME280;56843;52.020;5.670;2022-08-19T04:06:44;101179.66;;;13.36;92.95
69624;BME280;56843;52.020;5.670;2022-08-19T04:08:17;101168.13;;;13.35;92.95
69624;BME280;56843;52.020;5.670;2022-08-19T04:09:50;101181.88;;;13.34;92.90
69624;BME280;56843;52.020;5.670;2022-08-19T04:11:25;101171.50;;;13.32;92.97
69624;BME280;56843;52.020;5.670;2022-08-19T04:12:56;101177.97;;;13.31;92.97
69624;BME280;56843;52.020;5.670;2022-08-19T04:14:28;101178.31;;;13.30;93.18
69624;BME280;56843;52.020;5.670;2022-08-19T04:16:02;101174.84;;;13.29;93.31
69624;BME280;56843;52.020;5.670;2022-08-19T04:17:34;101170.56;;;13.28;93.28
69624;BME280;56843;52.020;5.670;2022-08-19T04:19:06;101165.22;;;13.28;93.22
69624;BME280;56843;52.020;5.670;2022-08-19T04:20:45;101162.88;;;13.26;93.02
69624;BME280;56843;52.020;5.670;2022-08-19T04:22:16;101166.53;;;13.22;93.05
69624;BME280;56843;52.020;5.670;2022-08-19T04:23:47;101170.34;;;13.21;93.03
69624;BME280;56843;52.020;5.670;2022-08-19T04:25:17;101170.34;;;13.21;93.34
69624;BME280;56843;52.020;5.670;2022-08-19T04:26:48;101166.09;;;13.20;93.13
69624;BME280;56843;52.020;5.670;2022-08-19T04:28:19;101169.91;;;13.19;93.46
69624;BME280;56843;52.020;5.670;2022-08-19T04:29:50;101162.97;;;13.18;93.32
69624;BME280;56843;52.020;5.670;2022-08-19T04:31:23;101166.75;;;13.17;93.13
69624;BME280;56843;52.020;5.670;2022-08-19T04:32:56;101162.50;;;13.16;93.28
69624;BME280;56843;52.020;5.670;2022-08-19T04:34:28;101152.88;;;13.15;93.14
69624;BME280;56843;52.020;5.670;2022-08-19T04:35:59;101154.81;;;13.14;93.52
69624;BME280;56843;52.020;5.670;2022-08-19T04:37:30;101153.66;;;13.15;93.21
69624;BME280;56843;52.020;5.670;2022-08-19T04:39:07;101153.66;;;13.15;93.54
69624;BME280;56843;52.020;5.670;2022-08-19T04:40:46;101144.06;;;13.14;93.35
69624;BME280;56843;52.020;5.670;2022-08-19T04:42:36;101156.25;;;13.12;93.28
69624;BME280;56843;52.020;5.670;2022-08-19T04:44:10;101151.63;;;13.12;93.08
69624;BME280;56843;52.020;5.670;2022-08-19T04:45:45;101149.75;;;13.13;93.13
69624;BME280;56843;52.020;5.670;2022-08-19T04:47:15;101153.56;;;13.12;93.60
69624;BME280;56843;52.020;5.670;2022-08-19T04:48:46;101155.44;;;13.11;93.45
69624;BME280;56843;52.020;5.670;2022-08-19T04:50:16;101162.69;;;13.11;93.43
69624;BME280;56843;52.020;5.670;2022-08-19T04:51:50;101154.66;;;13.11;93.38
69624;BME280;56843;52.020;5.670;2022-08-19T04:53:29;101158.91;;;13.12;93.51
69624;BME280;56843;52.020;5.670;2022-08-19T04:55:00;101158.91;;;13.12;93.49
69624;BME280;56843;52.020;5.670;2022-08-19T04:56:30;101163.50;;;13.11;93.18
69624;BME280;56843;52.020;5.670;2022-08-19T04:58:01;101165.53;;;13.14;93.36
69624;BME280;56843;52.020;5.670;2022-08-19T04:59:32;101169.75;;;13.15;93.44
69624;BME280;56843;52.020;5.670;2022-08-19T05:01:04;101170.56;;;13.16;93.01
69624;BME280;56843;52.020;5.670;2022-08-19T05:02:34;101172.09;;;13.17;93.19
69624;BME280;56843;52.020;5.670;2022-08-19T05:04:06;101176.38;;;13.18;93.40
69624;BME280;56843;52.020;5.670;2022-08-19T05:05:41;101167.97;;;13.19;93.31
69624;BME280;56843;52.020;5.670;2022-08-19T05:07:11;101186.75;;;13.19;92.87
69624;BME280;56843;52.020;5.670;2022-08-19T05:08:43;101179.16;;;13.21;93.11
69624;BME280;56843;52.020;5.670;2022-08-19T05:10:13;101177.25;;;13.22;92.99
69624;BME280;56843;52.020;5.670;2022-08-19T05:11:44;101175.03;;;13.24;92.92
69624;BME280;56843;52.020;5.670;2022-08-19T05:13:16;101177.41;;;13.25;92.91
69624;BME280;56843;52.020;5.670;2022-08-19T05:14:46;101179.41;;;13.28;93.02
69624;BME280;56843;52.020;5.670;2022-08-19T05:16:21;101173.41;;;13.32;93.10
69624;BME280;56843;52.020;5.670;2022-08-19T05:17:51;101180.00;;;13.34;92.60
69624;BME280;56843;52.020;5.670;2022-08-19T05:19:40;101177.75;;;13.36;92.77
69624;BME280;56843;52.020;5.670;2022-08-19T05:21:30;101181.00;;;13.42;92.86
69624;BME280;56843;52.020;5.670;2022-08-19T05:23:19;101187.28;;;13.46;92.41
69624;BME280;56843;52.020;5.670;2022-08-19T05:24:49;101170.53;;;13.49;92.37
69624;BME280;56843;52.020;5.670;2022-08-19T05:26:20;101178.03;;;13.55;92.66
69624;BME280;56843;52.020;5.670;2022-08-19T05:27:50;101186.53;;;13.57;92.31
69624;BME280;56843;52.020;5.670;2022-08-19T05:29:21;101169.09;;;13.63;92.13
69624;BME280;56843;52.020;5.670;2022-08-19T05:30:51;101179.59;;;13.68;92.28
69624;BME280;56843;52.020;5.670;2022-08-19T05:32:22;101177.81;;;13.72;92.13
69624;BME280;56843;52.020;5.670;2022-08-19T05:33:53;101186.78;;;13.76;91.86
69624;BME280;56843;52.020;5.670;2022-08-19T05:35:23;101176.94;;;13.80;91.85
69624;BME280;56843;52.020;5.670;2022-08-19T05:37:01;101178.28;;;13.86;91.53
69624;BME280;56843;52.020;5.670;2022-08-19T05:38:31;101187.22;;;13.90;91.73
69624;BME280;56843;52.020;5.670;2022-08-19T05:40:03;101189.72;;;13.95;91.66
69624;BME280;56843;52.020;5.670;2022-08-19T05:41:34;101179.88;;;13.99;91.53
69624;BME280;56843;52.020;5.670;2022-08-19T05:43:06;101185.03;;;14.05;91.44
69624;BME280;56843;52.020;5.670;2022-08-19T05:44:40;101195.56;;;14.10;91.11
69624;BME280;56843;52.020;5.670;2022-08-19T05:46:18;101193.41;;;14.15;91.27
69624;BME280;56843;52.020;5.670;2022-08-19T05:47:49;101190.53;;;14.20;91.24
69624;BME280;56843;52.020;5.670;2022-08-19T05:49:22;101192.28;;;14.28;90.83
69624;BME280;56843;52.020;5.670;2022-08-19T05:50:52;101198.22;;;14.34;90.96
69624;BME280;56843;52.020;5.670;2022-08-19T05:52:23;101193.84;;;14.41;90.67
69624;BME280;56843;52.020;5.670;2022-08-19T05:53:53;101192.16;;;14.49;90.54
69624;BME280;56843;52.020;5.670;2022-08-19T05:55:24;101192.03;;;14.57;90.32
69624;BME280;56843;52.020;5.670;2022-08-19T05:56:54;101196.03;;;14.63;90.36
69624;BME280;56843;52.020;5.670;2022-08-19T05:58:24;101198.59;;;14.72;90.34
69624;BME280;56843;52.020;5.670;2022-08-19T05:59:57;101198.81;;;14.79;90.26
69624;BME280;56843;52.020;5.670;2022-08-19T06:01:30;101209.41;;;14.88;90.00
69624;BME280;56843;52.020;5.670;2022-08-19T06:03:00;101203.13;;;14.96;90.03
69624;BME280;56843;52.020;5.670;2022-08-19T06:04:33;101195.72;;;15.05;89.93
69624;BME280;56843;52.020;5.670;2022-08-19T06:06:04;101199.59;;;15.19;89.86
69624;BME280;56843;52.020;5.670;2022-08-19T06:07:36;101196.25;;;15.38;89.14
69624;BME280;56843;52.020;5.670;2022-08-19T06:09:07;101204.34;;;15.54;88.93
69624;BME280;56843;52.020;5.670;2022-08-19T06:10:38;101207.13;;;15.73;88.55
69624;BME280;56843;52.020;5.670;2022-08-19T06:12:08;101199.38;;;15.87;87.94
69624;BME280;56843;52.020;5.670;2022-08-19T06:13:38;101202.09;;;16.02;87.82
69624;BME280;56843;52.020;5.670;2022-08-19T06:15:11;101196.28;;;16.16;87.48
69624;BME280;56843;52.020;5.670;2022-08-19T06:16:43;101201.13;;;16.26;87.45
69624;BME280;56843;52.020;5.670;2022-08-19T06:18:14;101200.69;;;16.40;87.36
69624;BME280;56843;52.020;5.670;2022-08-19T06:19:44;101203.75;;;16.57;86.89
69624;BME280;56843;52.020;5.670;2022-08-19T06:21:15;101197.94;;;16.74;86.54
69624;BME280;56843;52.020;5.670;2022-08-19T06:22:47;101199.44;;;16.91;86.07
69624;BME280;56843;52.020;5.670;2022-08-19T06:24:22;101195.94;;;17.06;85.87
69624;BME280;56843;52.020;5.670;2022-08-19T06:25:54;101196.47;;;17.15;85.97
69624;BME280;56843;52.020;5.670;2022-08-19T06:27:24;101187.84;;;17.29;85.45
69624;BME280;56843;52.020;5.670;2022-08-19T06:28:55;101191.94;;;17.42;85.47
69624;BME280;56843;52.020;5.670;2022-08-19T06:30:25;101188.72;;;17.55;85.05
69624;BME280;56843;52.020;5.670;2022-08-19T06:31:58;101188.59;;;17.71;84.93
69624;BME280;56843;52.020;5.670;2022-08-19T06:33:29;101192.00;;;17.87;84.56
69624;BME280;56843;52.020;5.670;2022-08-19T06:35:00;101194.06;;;17.97;84.26
69624;BME280;56843;52.020;5.670;2022-08-19T06:36:43;101196.59;;;18.09;83.95
69624;BME280;56843;52.020;5.670;2022-08-19T06:38:14;101197.16;;;18.22;83.78
69624;BME280;56843;52.020;5.670;2022-08-19T06:39:44;101200.44;;;18.34;83.65
69624;BME280;56843;52.020;5.670;2022-08-19T06:41:15;101197.50;;;18.47;83.63
69624;BME280;56843;52.020;5.670;2022-08-19T06:42:45;101201.09;;;18.54;83.20
69624;BME280;56843;52.020;5.670;2022-08-19T06:44:20;101205.81;;;18.61;83.13
69624;BME280;56843;52.020;5.670;2022-08-19T06:45:50;101208.94;;;18.63;83.25
69624;BME280;56843;52.020;5.670;2022-08-19T06:47:22;101203.16;;;18.64;83.59
69624;BME280;56843;52.020;5.670;2022-08-19T06:48:53;101203.22;;;18.68;83.40
69624;BME280;56843;52.020;5.670;2022-08-19T06:50:24;101200.50;;;18.68;83.85
69624;BME280;56843;52.020;5.670;2022-08-19T06:51:54;101202.50;;;18.71;83.72
69624;BME280;56843;52.020;5.670;2022-08-19T06:53:26;101204.47;;;18.74;83.77
69624;BME280;56843;52.020;5.670;2022-08-19T06:54:59;101210.72;;;18.78;83.84
69624;BME280;56843;52.020;5.670;2022-08-19T06:56:31;101210.78;;;18.85;83.48
69624;BME280;56843;52.020;5.670;2022-08-19T06:58:04;101201.59;;;18.93;83.63
69624;BME280;56843;52.020;5.670;2022-08-19T06:59:35;101201.28;;;18.98;83.16
69624;BME280;56843;52.020;5.670;2022-08-19T07:01:07;101201.69;;;19.00;83.10
69624;BME280;56843;52.020;5.670;2022-08-19T07:02:37;101205.22;;;19.04;83.06
69624;BME280;56843;52.020;5.670;2022-08-19T07:04:09;101205.28;;;19.08;83.54
69624;BME280;56843;52.020;5.670;2022-08-19T07:05:41;101209.16;;;19.10;83.29
69624;BME280;56843;52.020;5.670;2022-08-19T07:07:13;101206.13;;;19.15;83.30
69624;BME280;56843;52.020;5.670;2022-08-19T07:08:45;101212.41;;;19.23;82.85
69624;BME280;56843;52.020;5.670;2022-08-19T07:10:17;101206.31;;;19.33;82.50
69624;BME280;56843;52.020;5.670;2022-08-19T07:11:50;101211.00;;;19.39;82.47
69624;BME280;56843;52.020;5.670;2022-08-19T07:13:23;101215.69;;;19.42;82.60
69624;BME280;56843;52.020;5.670;2022-08-19T07:14:53;101207.25;;;19.47;81.93
69624;BME280;56843;52.020;5.670;2022-08-19T07:16:24;101203.09;;;19.57;82.20
69624;BME280;56843;52.020;5.670;2022-08-19T07:17:55;101213.19;;;19.63;81.75
69624;BME280;56843;52.020;5.670;2022-08-19T07:19:26;101218.28;;;19.65;81.32
69624;BME280;56843;52.020;5.670;2022-08-19T07:21:24;101218.31;;;19.72;80.96
69624;BME280;56843;52.020;5.670;2022-08-19T07:22:58;101222.22;;;19.74;80.86
69624;BME280;56843;52.020;5.670;2022-08-19T07:24:29;101227.28;;;19.76;80.45
69624;BME280;56843;52.020;5.670;2022-08-19T07:26:09;101216.78;;;19.74;80.30
69624;BME280;56843;52.020;5.670;2022-08-19T07:27:40;101218.31;;;19.72;80.37
69624;BME280;56843;52.020;5.670;2022-08-19T07:29:12;101215.97;;;19.67;80.07
69624;BME280;56843;52.020;5.670;2022-08-19T07:30:42;101215.97;;;19.70;79.95
69624;BME280;56843;52.020;5.670;2022-08-19T07:32:13;101218.34;;;19.75;79.77
69624;BME280;56843;52.020;5.670;2022-08-19T07:33:44;101219.94;;;19.80;79.61
69624;BME280;56843;52.020;5.670;2022-08-19T07:35:15;101230.81;;;19.84;79.33
69624;BME280;56843;52.020;5.670;2022-08-19T07:36:49;101221.22;;;19.93;78.61
69624;BME280;56843;52.020;5.670;2022-08-19T07:38:20;101232.13;;;20.04;78.33
69624;BME280;56843;52.020;5.670;2022-08-19T07:39:50;101233.00;;;20.15;77.80
69624;BME280;56843;52.020;5.670;2022-08-19T07:41:24;101231.13;;;20.22;77.11
69624;BME280;56843;52.020;5.670;2022-08-19T07:42:55;101233.94;;;20.33;77.00
69624;BME280;56843;52.020;5.670;2022-08-19T07:44:25;101242.19;;;20.50;76.23
69624;BME280;56843;52.020;5.670;2022-08-19T07:45:56;101233.00;;;20.76;75.46
69624;BME280;56843;52.020;5.670;2022-08-19T07:47:27;101226.91;;;21.00;74.70
69624;BME280;56843;52.020;5.670;2022-08-19T07:48:58;101223.13;;;21.19;73.64
69624;BME280;56843;52.020;5.670;2022-08-19T07:50:30;101228.59;;;21.40;73.54
69624;BME280;56843;52.020;5.670;2022-08-19T07:52:05;101224.38;;;21.64;72.32
69624;BME280;56843;52.020;5.670;2022-08-19T07:53:36;101230.63;;;21.89;71.43
69624;BME280;56843;52.020;5.670;2022-08-19T07:55:09;101231.00;;;21.94;70.79
69624;BME280;56843;52.020;5.670;2022-08-19T07:56:40;101229.84;;;21.99;70.90
69624;BME280;56843;52.020;5.670;2022-08-19T07:58:12;101242.25;;;22.00;70.73
69624;BME280;56843;52.020;5.670;2022-08-19T07:59:43;101244.63;;;21.94;71.06
69624;BME280;56843;52.020;5.670;2022-08-19T08:01:20;101239.53;;;22.00;70.88
69624;BME280;56843;52.020;5.670;2022-08-19T08:02:52;101241.09;;;22.22;70.22